Time;durP1;ratioP1;P1;durP2;ratioP2;P2;SDS_P1;SDS_P2;PMS_P1;PMS_P2;Temp;Humidity;BMP_temperature;BMP_pressure;BME280_temperature;BME280_humidity;BME280_pressure;Samples;Min_cycle;Max_cycle;Signal;HPM_P1;HPM_P2
2023/03/19 00:01:51;;;;;;;9.27;8.57;;;13.90;20.80;;;;;;5071129;28;20464;-58
2023/03/19 00:04:17;;;;;;;9.23;8.57;;;13.90;20.70;;;;;;5071136;28;20460;-58
2023/03/19 00:06:43;;;;;;;9.27;8.77;;;13.90;20.50;;;;;;5053452;28;20289;-58
2023/03/19 00:09:09;;;;;;;9.83;8.90;;;14.00;20.40;;;;;;5070867;28;20178;-58
2023/03/19 00:11:35;;;;;;;8.97;8.47;;;14.00;20.20;;;;;;5071340;28;20261;-58
2023/03/19 00:14:01;;;;;;;9.87;8.87;;;14.00;20.20;;;;;;5092781;28;20499;-58
2023/03/19 00:16:26;;;;;;;9.83;9.00;;;14.00;20.10;;;;;;5074482;28;20174;-57
2023/03/19 00:18:52;;;;;;;9.93;9.10;;;14.00;20.00;;;;;;5075221;28;20210;-58
2023/03/19 00:21:18;;;;;;;8.93;8.33;;;14.10;20.30;;;;;;5074918;28;20229;-60
2023/03/19 00:23:44;;;;;;;8.97;8.27;;;14.10;20.30;;;;;;5076104;28;20210;-59
2023/03/19 00:26:10;;;;;;;10.17;9.40;;;14.10;20.10;;;;;;5074606;28;20474;-58
2023/03/19 00:28:36;;;;;;;9.03;8.33;;;14.10;19.90;;;;;;5074205;28;20425;-60
2023/03/19 00:31:16;;;;;;;9.70;9.10;;;14.10;19.80;;;;;;5073875;28;21037;-59
2023/03/19 00:33:42;;;;;;;9.43;8.73;;;14.10;19.80;;;;;;5073994;28;20208;-59
2023/03/19 00:36:09;;;;;;;8.20;7.60;;;14.10;19.80;;;;;;5074529;28;20422;-60
2023/03/19 00:38:35;;;;;;;8.30;7.70;;;14.10;19.90;;;;;;5075161;28;20420;-61
2023/03/19 00:41:02;;;;;;;8.50;8.00;;;14.10;20.20;;;;;;5074501;28;20897;-58
2023/03/19 00:43:28;;;;;;;9.03;8.47;;;14.10;20.30;;;;;;5074402;28;20537;-60
2023/03/19 00:45:54;;;;;;;9.73;8.93;;;14.10;20.50;;;;;;5092362;28;20405;-59
2023/03/19 00:48:20;;;;;;;9.60;8.80;;;14.10;20.50;;;;;;5074086;28;20179;-59
2023/03/19 00:50:47;;;;;;;9.67;8.97;;;14.10;20.40;;;;;;5074155;28;20213;-59
2023/03/19 00:53:12;;;;;;;8.87;8.17;;;14.10;20.50;;;;;;5073964;28;20772;-59
2023/03/19 00:55:38;;;;;;;9.33;8.70;;;14.10;20.50;;;;;;5073280;28;20415;-59
2023/03/19 00:58:05;;;;;;;9.50;8.80;;;14.10;20.60;;;;;;5073508;28;20274;-59
2023/03/19 01:00:32;;;;;;;10.20;9.40;;;14.10;20.60;;;;;;5073645;28;20657;-59
2023/03/19 01:02:58;;;;;;;9.97;9.07;;;14.10;20.90;;;;;;5073719;28;20830;-59
2023/03/19 01:05:25;;;;;;;9.43;8.83;;;14.10;20.70;;;;;;5073331;28;20413;-59
2023/03/19 01:07:51;;;;;;;10.00;9.20;;;14.10;20.90;;;;;;5068436;28;20429;-59
2023/03/19 01:10:22;;;;;;;10.33;9.53;;;14.10;20.90;;;;;;5072178;28;20836;-60
2023/03/19 01:12:48;;;;;;;11.70;10.80;;;14.00;21.50;;;;;;5071641;28;20417;-58
2023/03/19 01:15:14;;;;;;;11.43;10.33;;;14.00;21.80;;;;;;5071303;28;20413;-58
2023/03/19 01:17:41;;;;;;;10.00;9.17;;;14.00;21.50;;;;;;5070113;28;20439;-58
2023/03/19 01:20:11;;;;;;;10.60;9.83;;;14.00;21.70;;;;;;5071193;28;20599;-60
2023/03/19 01:22:39;;;;;;;10.80;9.90;;;14.00;21.50;;;;;;5070289;28;20413;-59
2023/03/19 01:25:06;;;;;;;11.17;10.27;;;14.00;21.30;;;;;;5071085;28;20416;-59
2023/03/19 01:27:32;;;;;;;10.40;9.60;;;14.10;21.30;;;;;;5070567;28;20503;-59
2023/03/19 01:29:57;;;;;;;10.70;9.90;;;14.10;21.20;;;;;;5072022;28;20872;-59
2023/03/19 01:32:23;;;;;;;10.10;9.33;;;14.10;21.30;;;;;;5072517;28;20175;-59
2023/03/19 01:34:49;;;;;;;9.37;8.73;;;14.10;21.20;;;;;;5071943;28;20189;-59
2023/03/19 01:37:14;;;;;;;10.17;9.27;;;14.10;21.30;;;;;;5072283;28;20523;-59
2023/03/19 01:39:40;;;;;;;10.33;9.53;;;14.00;21.80;;;;;;5090596;28;20188;-59
2023/03/19 01:42:06;;;;;;;10.80;9.80;;;14.00;21.80;;;;;;5072096;28;20432;-59
2023/03/19 01:44:34;;;;;;;9.50;8.80;;;14.00;21.90;;;;;;5072018;28;20562;-59
2023/03/19 01:47:06;;;;;;;8.63;8.03;;;14.00;21.50;;;;;;5071795;28;20421;-59
2023/03/19 01:49:33;;;;;;;9.10;8.50;;;13.90;22.40;;;;;;5071609;28;20499;-59
2023/03/19 01:52:01;;;;;;;8.63;8.03;;;13.80;20.50;;;;;;5070953;28;20411;-59
2023/03/19 01:54:29;;;;;;;8.37;7.77;;;13.80;19.50;;;;;;5071754;28;20497;-59
2023/03/19 01:57:01;;;;;;;7.63;7.13;;;13.60;19.30;;;;;;5071170;28;20409;-59
2023/03/19 01:59:36;;;;;;;8.13;7.53;;;13.60;19.50;;;;;;5071164;28;20435;-59
2023/03/19 02:02:09;;;;;;;7.37;6.70;;;13.60;20.00;;;;;;5071343;28;20419;-59
2023/03/19 02:04:36;;;;;;;6.97;6.67;;;13.50;19.80;;;;;;5071009;28;20413;-59
2023/03/19 02:07:04;;;;;;;8.43;7.83;;;13.50;20.30;;;;;;5071127;28;20488;-59
2023/03/19 02:09:31;;;;;;;7.77;7.27;;;13.50;20.80;;;;;;5071013;28;20548;-59
2023/03/19 02:11:59;;;;;;;7.77;7.27;;;13.40;21.40;;;;;;5071024;28;20758;-59
2023/03/19 02:14:25;;;;;;;8.03;7.63;;;13.30;22.40;;;;;;5071634;28;20504;-59
2023/03/19 02:16:52;;;;;;;8.50;7.97;;;13.20;23.20;;;;;;5070922;28;20988;-59
2023/03/19 02:19:29;;;;;;;9.33;8.40;;;13.10;25.30;;;;;;5070810;28;20412;-59
2023/03/19 02:21:56;;;;;;;9.13;8.63;;;13.00;27.60;;;;;;5070560;28;20448;-59
2023/03/19 02:24:31;;;;;;;10.93;10.17;;;12.80;32.90;;;;;;5071076;28;20474;-58
2023/03/19 02:26:57;;;;;;;9.70;9.30;;;12.60;36.10;;;;;;5070551;28;20470;-59
2023/03/19 02:29:23;;;;;;;10.13;9.63;;;12.50;38.00;;;;;;5070435;28;20527;-58
2023/03/19 02:31:49;;;;;;;9.60;9.20;;;12.50;39.20;;;;;;5071496;28;21007;-58
2023/03/19 02:34:20;;;;;;;10.10;9.57;;;12.50;39.50;;;;;;5070245;28;20578;-58
2023/03/19 02:37:13;;;;;;;9.83;9.23;;;12.50;41.80;;;;;;5070581;28;20181;-58
2023/03/19 02:39:42;;;;;;;9.73;9.13;;;12.50;41.90;;;;;;5070341;28;20905;-58
2023/03/19 02:42:10;;;;;;;8.73;8.33;;;12.60;42.00;;;;;;5070642;28;20424;-59
2023/03/19 02:44:36;;;;;;;8.70;8.30;;;12.70;41.30;;;;;;5071058;28;20416;-59
2023/03/19 02:47:02;;;;;;;9.63;8.83;;;12.90;41.90;;;;;;5070453;28;20516;-58
2023/03/19 02:49:29;;;;;;;9.83;9.43;;;13.00;41.70;;;;;;5070344;28;20494;-58
2023/03/19 02:51:54;;;;;;;10.00;9.60;;;12.80;40.70;;;;;;5070760;28;20486;-58
2023/03/19 02:54:20;;;;;;;10.30;9.80;;;12.70;41.70;;;;;;5070054;28;20433;-58
2023/03/19 02:56:46;;;;;;;10.43;9.80;;;12.60;42.20;;;;;;5069605;28;20232;-58
2023/03/19 02:59:12;;;;;;;10.03;9.63;;;12.50;42.70;;;;;;5067017;28;20186;-59
2023/03/19 03:01:37;;;;;;;9.10;8.70;;;12.50;43.80;;;;;;5068012;28;20417;-59
2023/03/19 03:04:04;;;;;;;9.90;9.50;;;12.60;42.90;;;;;;5067793;28;20193;-59
2023/03/19 03:06:31;;;;;;;10.37;9.97;;;12.60;42.40;;;;;;5068986;28;20175;-59
2023/03/19 03:08:56;;;;;;;11.17;10.43;;;12.70;43.00;;;;;;5069448;28;20500;-58
2023/03/19 03:11:22;;;;;;;9.03;8.63;;;12.80;41.80;;;;;;5070216;28;20543;-58
2023/03/19 03:13:48;;;;;;;10.00;9.60;;;12.90;41.30;;;;;;5069978;28;20887;-57
2023/03/19 03:16:14;;;;;;;9.57;9.07;;;13.10;41.20;;;;;;5069346;28;20413;-58
2023/03/19 03:18:40;;;;;;;10.30;9.80;;;13.20;40.80;;;;;;5070188;28;20186;-56
2023/03/19 03:21:05;;;;;;;9.87;9.47;;;13.20;41.00;;;;;;5069886;28;20424;-57
2023/03/19 03:23:31;;;;;;;10.10;9.70;;;13.30;40.90;;;;;;5069725;28;20416;-57
2023/03/19 03:25:57;;;;;;;9.73;9.33;;;13.20;42.10;;;;;;5069589;28;20630;-57
2023/03/19 03:28:23;;;;;;;9.63;9.13;;;13.30;41.70;;;;;;5069201;28;20466;-57
2023/03/19 03:30:49;;;;;;;10.37;9.87;;;13.30;41.70;;;;;;5069259;28;20347;-58
2023/03/19 03:33:16;;;;;;;10.23;9.53;;;13.30;42.50;;;;;;5068956;28;20500;-57
2023/03/19 03:35:41;;;;;;;9.40;8.90;;;13.30;41.90;;;;;;5070319;28;20186;-57
2023/03/19 03:38:07;;;;;;;9.87;9.47;;;13.30;41.20;;;;;;5068244;28;20420;-57
2023/03/19 03:40:33;;;;;;;10.17;9.67;;;13.30;41.70;;;;;;5068265;28;20182;-57
2023/03/19 03:42:59;;;;;;;10.43;9.87;;;13.30;41.40;;;;;;5067895;28;20182;-57
2023/03/19 03:45:25;;;;;;;10.67;10.07;;;13.40;40.20;;;;;;5068004;28;20749;-56
2023/03/19 03:47:51;;;;;;;9.87;9.47;;;13.40;40.70;;;;;;5071928;28;20178;-57
2023/03/19 03:50:17;;;;;;;10.13;9.63;;;13.30;40.90;;;;;;5071938;28;20194;-57
2023/03/19 03:52:43;;;;;;;11.20;10.60;;;13.30;40.90;;;;;;5073004;28;20550;-57
2023/03/19 03:55:09;;;;;;;10.27;9.70;;;13.30;41.10;;;;;;5072616;28;20976;-57
2023/03/19 03:57:35;;;;;;;10.57;9.97;;;13.30;40.80;;;;;;5072876;28;20185;-57
2023/03/19 04:00:00;;;;;;;11.03;10.53;;;13.30;40.20;;;;;;5069223;28;20518;-58
2023/03/19 04:02:26;;;;;;;9.50;9.10;;;13.40;40.50;;;;;;5069406;28;20483;-57
2023/03/19 04:04:52;;;;;;;10.17;9.67;;;13.40;40.10;;;;;;5069315;28;20197;-57
2023/03/19 04:07:18;;;;;;;11.47;10.80;;;13.40;39.80;;;;;;5069569;28;20776;-57
2023/03/19 04:09:44;;;;;;;11.30;10.57;;;13.40;39.10;;;;;;5071517;28;20457;-57
2023/03/19 04:12:11;;;;;;;9.93;9.53;;;13.30;37.80;;;;;;5070151;28;20422;-57
2023/03/19 04:14:37;;;;;;;10.50;9.93;;;13.30;37.70;;;;;;5069717;28;20488;-57
2023/03/19 04:17:04;;;;;;;10.40;9.90;;;13.40;36.70;;;;;;5069387;28;21020;-57
2023/03/19 04:19:30;;;;;;;10.97;10.47;;;13.40;36.20;;;;;;5068950;28;20582;-57
2023/03/19 04:21:56;;;;;;;10.70;10.13;;;13.50;36.00;;;;;;5069898;28;20445;-57
2023/03/19 04:24:22;;;;;;;10.50;9.90;;;13.50;35.90;;;;;;5069757;28;20413;-57
2023/03/19 04:26:48;;;;;;;10.80;10.40;;;13.50;34.60;;;;;;5069262;28;20423;-57
2023/03/19 04:29:14;;;;;;;10.93;10.13;;;13.50;34.80;;;;;;5069451;28;20556;-57
2023/03/19 04:31:40;;;;;;;9.63;9.23;;;13.50;34.90;;;;;;5069231;28;20463;-56
2023/03/19 04:34:06;;;;;;;10.63;10.03;;;13.50;34.60;;;;;;5069366;28;20409;-57
2023/03/19 04:36:32;;;;;;;9.80;9.40;;;13.50;34.60;;;;;;5069081;28;20710;-57
2023/03/19 04:38:57;;;;;;;9.60;9.10;;;13.50;34.40;;;;;;5070969;28;20178;-57
2023/03/19 04:41:23;;;;;;;8.97;8.67;;;13.50;34.60;;;;;;5069207;28;20475;-57
2023/03/19 04:43:49;;;;;;;10.37;9.63;;;13.50;34.70;;;;;;5069023;28;20179;-57
2023/03/19 04:46:15;;;;;;;8.80;8.50;;;13.40;34.50;;;;;;5068971;28;20183;-59
2023/03/19 04:48:41;;;;;;;9.60;9.07;;;13.30;34.60;;;;;;5069537;28;20171;-58
2023/03/19 04:51:10;;;;;;;10.10;9.60;;;13.40;34.10;;;;;;5068389;28;20994;-58
2023/03/19 04:53:36;;;;;;;10.43;9.83;;;13.30;33.40;;;;;;5069694;28;20409;-58
2023/03/19 04:56:02;;;;;;;10.47;9.97;;;13.30;33.80;;;;;;5069048;28;20754;-58
2023/03/19 04:58:28;;;;;;;10.33;9.77;;;13.30;34.40;;;;;;5072109;28;20668;-54
2023/03/19 05:00:54;;;;;;;10.40;9.90;;;13.30;34.40;;;;;;5071561;28;20502;-57
2023/03/19 05:03:20;;;;;;;10.40;9.90;;;13.30;34.40;;;;;;5071663;28;20415;-57
2023/03/19 05:05:46;;;;;;;9.57;9.17;;;13.30;34.40;;;;;;5072654;28;20183;-57
2023/03/19 05:08:12;;;;;;;10.20;9.70;;;13.20;34.40;;;;;;5072876;28;20416;-57
2023/03/19 05:10:39;;;;;;;10.00;9.53;;;13.20;34.80;;;;;;5072492;28;20203;-57
2023/03/19 05:13:06;;;;;;;9.93;9.53;;;13.30;34.40;;;;;;5072152;28;20415;-57
2023/03/19 05:15:32;;;;;;;9.30;8.87;;;13.30;34.40;;;;;;5071799;28;20779;-57
2023/03/19 05:17:57;;;;;;;9.20;8.80;;;13.30;34.40;;;;;;5071736;28;20405;-57
2023/03/19 05:20:24;;;;;;;9.87;9.17;;;13.30;34.80;;;;;;5071877;28;20416;-57
2023/03/19 05:22:51;;;;;;;10.37;9.67;;;13.30;34.40;;;;;;5072305;28;20205;-58
2023/03/19 05:25:18;;;;;;;9.93;9.40;;;13.40;35.40;;;;;;5072063;28;20897;-58
2023/03/19 05:27:44;;;;;;;10.10;9.60;;;13.30;34.40;;;;;;5090284;28;20405;-57
2023/03/19 05:30:11;;;;;;;10.07;9.60;;;13.20;34.30;;;;;;5071098;28;20469;-59
2023/03/19 05:32:37;;;;;;;10.37;9.87;;;13.10;34.20;;;;;;5070953;28;20531;-59
2023/03/19 05:35:04;;;;;;;9.60;9.20;;;13.00;34.20;;;;;;5070637;28;20412;-59
2023/03/19 05:37:30;;;;;;;10.40;9.70;;;13.00;35.10;;;;;;5071670;28;20951;-58
2023/03/19 05:39:56;;;;;;;11.20;10.60;;;12.90;35.50;;;;;;5069927;28;20455;-59
2023/03/19 05:42:21;;;;;;;10.33;9.73;;;12.80;35.10;;;;;;5069107;28;20425;-58
2023/03/19 05:44:47;;;;;;;9.97;9.53;;;12.80;35.90;;;;;;5070522;28;20240;-59
2023/03/19 05:47:13;;;;;;;11.50;10.90;;;12.80;37.10;;;;;;5069888;28;20630;-58
2023/03/19 05:49:39;;;;;;;9.43;9.07;;;12.90;36.70;;;;;;5070244;28;20214;-58
2023/03/19 05:52:05;;;;;;;10.70;10.20;;;13.00;35.70;;;;;;5070834;28;20171;-59
2023/03/19 05:54:30;;;;;;;10.40;9.90;;;12.90;35.70;;;;;;5070802;28;20591;-59
2023/03/19 05:56:56;;;;;;;10.80;10.20;;;13.00;34.40;;;;;;5070068;28;20405;-58
2023/03/19 05:59:22;;;;;;;9.67;9.17;;;12.90;35.80;;;;;;5089042;28;20516;-58
2023/03/19 06:01:47;;;;;;;10.63;10.10;;;13.00;35.60;;;;;;5070988;28;20652;-56
2023/03/19 06:04:13;;;;;;;9.50;8.90;;;13.10;35.60;;;;;;5071048;28;20179;-59
2023/03/19 06:06:39;;;;;;;10.03;9.53;;;13.10;35.30;;;;;;5070729;28;20178;-59
2023/03/19 06:09:04;;;;;;;10.50;9.80;;;13.20;34.60;;;;;;5069891;28;20246;-59
2023/03/19 06:11:30;;;;;;;10.80;10.30;;;13.20;34.80;;;;;;5070631;28;20251;-59
2023/03/19 06:13:56;;;;;;;9.90;9.30;;;13.30;34.40;;;;;;5070805;28;20224;-59
2023/03/19 06:16:22;;;;;;;9.80;9.30;;;13.30;34.40;;;;;;5070236;28;20822;-59
2023/03/19 06:18:47;;;;;;;9.63;9.23;;;13.30;33.80;;;;;;5071310;28;20627;-57
2023/03/19 06:21:13;;;;;;;9.87;9.27;;;13.30;33.70;;;;;;5071236;28;20235;-56
2023/03/19 06:23:39;;;;;;;10.40;9.97;;;13.30;33.30;;;;;;5071146;28;20195;-56
2023/03/19 06:26:05;;;;;;;9.50;9.00;;;13.40;32.90;;;;;;5070255;28;20319;-55
2023/03/19 06:28:31;;;;;;;10.30;9.80;;;13.40;32.90;;;;;;5070037;28;20420;-56
2023/03/19 06:30:57;;;;;;;10.60;10.03;;;13.40;33.00;;;;;;5070170;28;20465;-57
2023/03/19 06:33:26;;;;;;;9.97;9.47;;;13.30;33.70;;;;;;5070130;28;20412;-56
2023/03/19 06:35:52;;;;;;;9.57;9.17;;;13.30;34.40;;;;;;5070633;28;20631;-57
2023/03/19 06:38:18;;;;;;;9.57;9.07;;;13.30;34.40;;;;;;5069794;28;20412;-56
2023/03/19 06:40:43;;;;;;;9.17;8.77;;;13.30;34.20;;;;;;5069878;28;20413;-56
2023/03/19 06:43:09;;;;;;;8.50;7.90;;;13.30;31.90;;;;;;5069202;28;20551;-54
2023/03/19 06:45:35;;;;;;;9.80;9.20;;;13.20;32.10;;;;;;5069790;28;20186;-56
2023/03/19 06:48:00;;;;;;;8.23;7.83;;;13.10;31.40;;;;;;5069854;28;20365;-56
2023/03/19 06:50:26;;;;;;;8.90;8.53;;;13.00;31.20;;;;;;5069729;28;20542;-54
2023/03/19 06:52:52;;;;;;;9.60;9.00;;;12.80;31.50;;;;;;5069263;28;20574;-56
2023/03/19 06:55:19;;;;;;;9.43;9.03;;;12.60;31.80;;;;;;5069661;28;20413;-56
2023/03/19 06:57:49;;;;;;;9.80;9.30;;;12.40;33.60;;;;;;5070488;28;20217;-59
2023/03/19 07:00:15;;;;;;;8.93;8.53;;;12.30;33.50;;;;;;5070066;28;20416;-58
2023/03/19 07:02:41;;;;;;;10.80;10.13;;;12.20;33.40;;;;;;5069510;28;20492;-59
2023/03/19 07:05:07;;;;;;;9.67;9.17;;;12.20;33.40;;;;;;5069353;28;20508;-59
2023/03/19 07:07:33;;;;;;;9.70;9.20;;;12.20;33.90;;;;;;5068755;28;20190;-59
2023/03/19 07:09:58;;;;;;;10.30;9.60;;;12.10;33.30;;;;;;5067795;28;20460;-58
2023/03/19 07:12:26;;;;;;;10.80;10.00;;;12.20;33.40;;;;;;5068818;28;20171;-58
2023/03/19 07:14:54;;;;;;;10.53;9.90;;;12.20;33.40;;;;;;5068256;28;20214;-58
2023/03/19 07:17:21;;;;;;;10.63;10.10;;;12.20;31.90;;;;;;5087634;28;20417;-58
2023/03/19 07:19:47;;;;;;;9.37;8.97;;;12.10;32.10;;;;;;5069120;28;20439;-58
2023/03/19 07:22:12;;;;;;;9.97;9.33;;;12.00;31.70;;;;;;5069238;28;20429;-58
2023/03/19 07:24:38;;;;;;;10.20;9.40;;;12.00;33.60;;;;;;5069994;28;20186;-58
2023/03/19 07:27:04;;;;;;;9.03;8.63;;;12.00;33.20;;;;;;5069343;28;20178;-58
2023/03/19 07:29:30;;;;;;;9.70;9.10;;;12.00;33.20;;;;;;5068936;28;20638;-58
2023/03/19 07:31:56;;;;;;;10.30;9.60;;;12.00;33.20;;;;;;5068487;28;20441;-58
2023/03/19 07:34:22;;;;;;;9.70;9.30;;;12.00;34.20;;;;;;5087256;28;20768;-58
2023/03/19 07:36:48;;;;;;;9.23;8.83;;;12.00;33.30;;;;;;5068897;28;20174;-58
2023/03/19 07:39:14;;;;;;;10.40;9.73;;;12.00;33.20;;;;;;5068053;28;20268;-58
2023/03/19 07:41:40;;;;;;;9.93;9.27;;;12.00;33.20;;;;;;5068123;28;20584;-58
2023/03/19 07:44:05;;;;;;;10.00;9.50;;;12.00;34.30;;;;;;5068901;28;20469;-56
2023/03/19 07:46:31;;;;;;;9.60;9.00;;;12.10;33.70;;;;;;5069489;28;20814;-53
2023/03/19 07:48:57;;;;;;;8.90;8.50;;;12.10;34.00;;;;;;5069019;28;20269;-58
2023/03/19 07:51:23;;;;;;;10.63;9.90;;;12.10;34.10;;;;;;5068570;28;20457;-58
2023/03/19 07:53:49;;;;;;;9.43;9.03;;;12.10;33.30;;;;;;5068858;28;20189;-58
2023/03/19 07:56:14;;;;;;;10.20;9.70;;;12.00;33.40;;;;;;5068656;28;20541;-59
2023/03/19 07:58:40;;;;;;;9.17;8.57;;;12.00;34.60;;;;;;5069117;28;20835;-58
2023/03/19 08:01:06;;;;;;;9.47;8.97;;;12.00;33.90;;;;;;5065203;28;20225;-58
2023/03/19 08:03:32;;;;;;;9.03;8.67;;;12.10;33.90;;;;;;5069049;28;20269;-58
2023/03/19 08:05:58;;;;;;;8.77;8.17;;;12.20;34.50;;;;;;5068755;28;20224;-59
2023/03/19 08:08:23;;;;;;;9.53;9.03;;;12.20;33.60;;;;;;5069489;28;20452;-59
2023/03/19 08:10:51;;;;;;;8.93;8.50;;;12.20;33.50;;;;;;5068522;28;20202;-59
2023/03/19 08:13:17;;;;;;;9.60;9.20;;;12.30;33.90;;;;;;5070300;28;20174;-58
2023/03/19 08:15:43;;;;;;;9.23;8.63;;;12.30;33.90;;;;;;5068469;28;20424;-60
2023/03/19 08:18:08;;;;;;;9.43;8.93;;;12.30;34.80;;;;;;5067760;28;20175;-51
2023/03/19 08:20:34;;;;;;;9.93;9.53;;;12.30;34.30;;;;;;5069958;28;20662;-60
2023/03/19 08:23:00;;;;;;;8.90;8.37;;;12.40;34.00;;;;;;5088261;28;20179;-60
2023/03/19 08:25:26;;;;;;;8.80;8.23;;;12.40;32.80;;;;;;5070211;28;20189;-61
2023/03/19 08:27:52;;;;;;;8.80;8.40;;;12.40;33.20;;;;;;5070291;28;20444;-61
2023/03/19 08:30:18;;;;;;;8.57;8.17;;;12.50;32.50;;;;;;5086949;28;20842;-60
2023/03/19 08:32:43;;;;;;;8.63;8.23;;;12.60;31.90;;;;;;5070806;28;20957;-61
2023/03/19 08:35:10;;;;;;;8.53;7.93;;;12.60;31.90;;;;;;5072413;28;20179;-61
2023/03/19 08:37:35;;;;;;;8.40;7.90;;;12.70;32.30;;;;;;5073690;28;20224;-61
2023/03/19 08:40:01;;;;;;;8.80;8.40;;;12.80;31.50;;;;;;5073056;28;20424;-61
2023/03/19 08:42:27;;;;;;;9.13;8.60;;;12.90;32.10;;;;;;5074312;28;20179;-61
2023/03/19 08:44:54;;;;;;;8.53;8.17;;;13.00;32.00;;;;;;5073867;28;20420;-60
2023/03/19 08:47:23;;;;;;;8.43;7.93;;;13.10;32.00;;;;;;5073921;28;20433;-61
2023/03/19 08:49:49;;;;;;;8.53;8.03;;;13.00;31.20;;;;;;5073007;28;20464;-61
2023/03/19 08:52:15;;;;;;;8.47;8.07;;;13.10;31.20;;;;;;5091269;28;20461;-61
2023/03/19 08:54:41;;;;;;;9.00;8.30;;;13.20;31.30;;;;;;5073399;28;20874;-61
2023/03/19 08:57:06;;;;;;;8.40;8.00;;;13.20;30.80;;;;;;5073634;28;20184;-61
2023/03/19 08:59:32;;;;;;;8.70;8.30;;;13.20;30.80;;;;;;5073755;28;20178;-61
2023/03/19 09:01:57;;;;;;;8.50;8.10;;;13.20;30.60;;;;;;5073323;28;20227;-61
2023/03/19 09:04:23;;;;;;;9.33;8.70;;;13.30;30.50;;;;;;5073705;28;20189;-61
2023/03/19 09:06:51;;;;;;;8.17;7.77;;;13.30;30.70;;;;;;5072699;28;20181;-60
2023/03/19 09:09:19;;;;;;;8.93;8.53;;;13.40;30.80;;;;;;5072993;28;20174;-60
2023/03/19 09:11:45;;;;;;;8.43;8.03;;;13.40;30.70;;;;;;5073200;28;20460;-61
2023/03/19 09:14:11;;;;;;;9.03;8.63;;;13.50;30.70;;;;;;5072459;28;20424;-60
2023/03/19 09:16:37;;;;;;;9.07;8.47;;;13.60;30.30;;;;;;5073127;28;20416;-61
2023/03/19 09:19:03;;;;;;;9.23;8.83;;;13.70;30.60;;;;;;5072787;28;20921;-61
2023/03/19 09:21:29;;;;;;;8.17;7.80;;;13.70;30.80;;;;;;5073062;28;20413;-61
2023/03/19 09:23:54;;;;;;;9.93;9.37;;;13.80;30.00;;;;;;5073585;28;20228;-59
2023/03/19 09:26:20;;;;;;;9.30;8.70;;;13.80;30.00;;;;;;5072898;28;20183;-58
2023/03/19 09:28:46;;;;;;;9.73;9.00;;;13.90;30.00;;;;;;5072545;28;20942;-58
2023/03/19 09:31:11;;;;;;;8.80;8.30;;;14.00;30.50;;;;;;5072867;28;20210;-58
2023/03/19 09:33:37;;;;;;;9.97;9.47;;;14.00;30.00;;;;;;5072578;28;20213;-58
2023/03/19 09:36:03;;;;;;;10.40;9.90;;;14.00;30.00;;;;;;5072677;28;20206;-58
2023/03/19 09:38:30;;;;;;;11.50;9.27;;;14.10;29.00;;;;;;5072554;28;20206;-58
2023/03/19 09:41:05;;;;;;;9.87;9.23;;;14.10;28.30;;;;;;5072302;28;20431;-58
2023/03/19 09:43:35;;;;;;;8.57;8.07;;;14.20;29.30;;;;;;5072762;28;20432;-58
2023/03/19 09:46:05;;;;;;;8.47;8.00;;;14.20;29.50;;;;;;5073079;28;20516;-57
2023/03/19 09:48:45;;;;;;;7.53;7.23;;;14.30;29.00;;;;;;5073264;28;20464;-57
2023/03/19 09:51:19;;;;;;;8.70;8.30;;;14.50;27.50;;;;;;5072579;28;20548;-58
2023/03/19 09:54:06;;;;;;;8.50;8.00;;;14.60;26.30;;;;;;5072609;28;20423;-58
2023/03/19 09:56:32;;;;;;;7.83;7.23;;;14.90;25.80;;;;;;5073510;28;20841;-58
2023/03/19 09:58:58;;;;;;;7.43;7.03;;;15.10;24.20;;;;;;5072243;28;20480;-58
2023/03/19 10:01:51;;;;;;;6.83;6.53;;;15.20;23.40;;;;;;5090427;28;20647;-58
2023/03/19 10:04:29;;;;;;;6.93;6.63;;;15.40;23.20;;;;;;5072855;28;20464;-59
2023/03/19 10:07:10;;;;;;;6.83;6.43;;;15.50;22.20;;;;;;5073725;28;20413;-58
2023/03/19 10:10:01;;;;;;;6.70;6.30;;;15.60;21.40;;;;;;5072907;28;20428;-61
2023/03/19 10:12:32;;;;;;;6.77;6.40;;;15.70;20.20;;;;;;5073150;28;20409;-60
2023/03/19 10:15:17;;;;;;;8.40;7.10;;;15.60;20.50;;;;;;5072719;28;20470;-61
2023/03/19 10:17:48;;;;;;;7.10;6.40;;;15.70;20.70;;;;;;5072705;28;20472;-61
2023/03/19 10:20:35;;;;;;;6.23;6.03;;;15.80;20.20;;;;;;5072422;28;20420;-61
2023/03/19 10:23:38;;;;;;;6.90;6.50;;;15.90;20.50;;;;;;5071658;28;20507;-60
2023/03/19 10:26:08;;;;;;;6.43;6.03;;;16.00;20.60;;;;;;5072193;28;20422;-60
2023/03/19 10:28:35;;;;;;;6.13;5.93;;;16.10;20.10;;;;;;5072260;28;20423;-60
2023/03/19 10:31:20;;;;;;;6.67;6.27;;;16.10;19.80;;;;;;5090118;28;20505;-60
2023/03/19 10:34:00;;;;;;;5.87;5.67;;;16.20;20.00;;;;;;5072196;28;20757;-60
2023/03/19 10:36:32;;;;;;;6.60;6.30;;;16.20;19.10;;;;;;5072093;28;20409;-60
2023/03/19 10:38:57;;;;;;;7.00;6.40;;;16.20;19.10;;;;;;5072822;28;20927;-60
2023/03/19 10:41:42;;;;;;;6.60;6.30;;;16.20;19.80;;;;;;5072944;28;20428;-61
2023/03/19 10:44:26;;;;;;;6.73;6.40;;;16.30;19.50;;;;;;5073360;28;20209;-60
2023/03/19 10:46:51;;;;;;;7.00;6.67;;;16.40;19.60;;;;;;5073558;28;20760;-61
2023/03/19 10:49:17;;;;;;;5.97;5.67;;;16.50;18.30;;;;;;5073929;28;20412;-60
2023/03/19 10:51:45;;;;;;;6.10;5.70;;;16.60;16.30;;;;;;5074366;28;20400;-58
2023/03/19 10:54:25;;;;;;;5.87;5.67;;;16.60;16.00;;;;;;5073649;28;20175;-58
2023/03/19 10:56:55;;;;;;;10.27;5.77;;;16.60;15.80;;;;;;5073767;28;20408;-59
2023/03/19 10:59:29;;;;;;;6.47;5.90;;;16.70;15.60;;;;;;5074111;28;20417;-59
2023/03/19 11:02:02;;;;;;;5.60;5.40;;;16.60;15.70;;;;;;5073527;28;20408;-60
2023/03/19 11:04:28;;;;;;;6.13;5.63;;;16.70;16.20;;;;;;5054569;28;20413;-60
2023/03/19 11:07:17;;;;;;;6.60;5.97;;;16.70;15.90;;;;;;5054300;28;20479;-61
2023/03/19 11:09:46;;;;;;;6.10;5.80;;;16.70;16.30;;;;;;5065822;28;20424;-61
2023/03/19 11:12:15;;;;;;;5.50;5.30;;;16.80;16.40;;;;;;5074078;28;20413;-61
2023/03/19 11:14:44;;;;;;;6.50;6.20;;;16.80;16.70;;;;;;5074463;28;20783;-61
2023/03/19 11:17:36;;;;;;;8.97;8.47;;;16.80;17.30;;;;;;5073734;28;20779;-61
2023/03/19 11:20:08;;;;;;;6.93;6.07;;;16.80;17.20;;;;;;5074312;28;20425;-59
2023/03/19 11:22:36;;;;;;;6.00;5.70;;;16.70;17.40;;;;;;5073986;28;20423;-59
2023/03/19 11:25:12;;;;;;;6.27;6.00;;;16.70;17.20;;;;;;5073595;28;20425;-58
2023/03/19 11:27:39;;;;;;;6.07;5.83;;;16.70;16.90;;;;;;5073981;28;20507;-58
2023/03/19 11:30:15;;;;;;;6.23;5.73;;;16.70;17.10;;;;;;5073132;28;20468;-58
2023/03/19 11:32:47;;;;;;;6.60;6.20;;;16.70;17.10;;;;;;5073846;28;20506;-61
2023/03/19 11:35:20;;;;;;;5.93;5.70;;;16.70;17.00;;;;;;5073928;28;20413;-61
2023/03/19 11:37:49;;;;;;;5.63;5.33;;;16.70;17.50;;;;;;5073251;28;20441;-61
2023/03/19 11:40:18;;;;;;;6.57;6.27;;;16.80;17.40;;;;;;5092077;28;20404;-61
2023/03/19 11:43:14;;;;;;;6.20;5.80;;;16.90;17.50;;;;;;5073871;28;20419;-61
2023/03/19 11:45:42;;;;;;;5.80;5.60;;;16.90;16.90;;;;;;5074043;28;20419;-61
2023/03/19 11:48:39;;;;;;;6.57;5.93;;;17.00;17.20;;;;;;5073888;28;20424;-61
2023/03/19 11:51:16;;;;;;;5.93;5.50;;;17.00;16.10;;;;;;5073775;28;20487;-60
2023/03/19 11:53:51;;;;;;;6.00;5.80;;;17.10;15.50;;;;;;5074097;28;20427;-61
2023/03/19 11:56:38;;;;;;;5.57;5.30;;;17.00;15.50;;;;;;5073831;28;20483;-61
2023/03/19 11:59:07;;;;;;;6.50;6.10;;;17.00;15.80;;;;;;5073833;28;20413;-61
2023/03/19 12:01:57;;;;;;;6.50;6.00;;;17.00;15.40;;;;;;5073631;28;20452;-61
2023/03/19 12:04:48;;;;;;;5.27;5.07;;;17.00;15.10;;;;;;5073987;28;20420;-61
2023/03/19 12:07:31;;;;;;;6.57;6.17;;;16.90;15.30;;;;;;5075306;28;20823;-60
2023/03/19 12:10:16;;;;;;;6.47;6.07;;;16.90;15.60;;;;;;5077747;28;20463;-61
2023/03/19 12:12:54;;;;;;;5.80;5.50;;;17.00;15.60;;;;;;5077535;28;20503;-61
2023/03/19 12:15:30;;;;;;;5.60;5.30;;;17.10;15.30;;;;;;5077482;28;20784;-61
2023/03/19 12:18:17;;;;;;;5.43;5.23;;;17.10;15.40;;;;;;5077560;28;20403;-61
2023/03/19 12:20:48;;;;;;;5.67;5.27;;;17.00;15.60;;;;;;5077558;28;20419;-60
2023/03/19 12:23:26;;;;;;;4.50;4.30;;;16.90;15.80;;;;;;5077206;28;20507;-60
2023/03/19 12:25:57;;;;;;;5.17;4.77;;;16.90;16.20;;;;;;5077495;28;20409;-61
2023/03/19 12:28:27;;;;;;;5.13;4.93;;;16.90;16.40;;;;;;5077327;28;20467;-60
2023/03/19 12:31:05;;;;;;;5.67;5.27;;;16.90;16.50;;;;;;5077261;28;20839;-61
2023/03/19 12:33:52;;;;;;;5.50;5.20;;;17.00;16.40;;;;;;5077118;28;20428;-61
2023/03/19 12:36:28;;;;;;;5.80;5.60;;;17.00;16.60;;;;;;5077044;28;20780;-61
2023/03/19 12:39:18;;;;;;;6.07;5.43;;;17.00;16.70;;;;;;5077232;28;20412;-62
2023/03/19 12:41:47;;;;;;;5.50;5.20;;;16.90;16.50;;;;;;5076989;28;20424;-61
2023/03/19 12:44:31;;;;;;;5.63;5.43;;;16.90;16.80;;;;;;5077007;28;20941;-62
2023/03/19 12:47:01;;;;;;;6.63;6.30;;;16.90;17.00;;;;;;5076888;28;20420;-61
2023/03/19 12:49:57;;;;;;;5.80;5.60;;;17.00;16.90;;;;;;5076831;28;20428;-61
2023/03/19 12:52:32;;;;;;;6.00;5.80;;;16.90;16.80;;;;;;5076543;28;20416;-61